sensor_id;sensor_type;location;lat;lon;timestamp;P1;durP1;ratioP1;P2;durP2;ratioP2
45420;SDS011;55462;47.042;8.292;2023-03-02T00:01:23;25.57;;;21.53;;
45420;SDS011;55462;47.042;8.292;2023-03-02T00:03:54;22.73;;;19.87;;
45420;SDS011;55462;47.042;8.292;2023-03-02T00:06:22;25.63;;;20.30;;
45420;SDS011;55462;47.042;8.292;2023-03-02T00:08:48;24.27;;;21.10;;
45420;SDS011;55462;47.042;8.292;2023-03-02T00:11:13;22.93;;;20.30;;
45420;SDS011;55462;47.042;8.292;2023-03-02T00:13:39;28.83;;;21.47;;
45420;SDS011;55462;47.042;8.292;2023-03-02T00:16:05;23.87;;;20.30;;
45420;SDS011;55462;47.042;8.292;2023-03-02T00:18:31;24.33;;;21.10;;
45420;SDS011;55462;47.042;8.292;2023-03-02T00:20:56;22.10;;;19.70;;
45420;SDS011;55462;47.042;8.292;2023-03-02T00:23:21;26.93;;;20.80;;
45420;SDS011;55462;47.042;8.292;2023-03-02T00:25:46;25.03;;;20.47;;
45420;SDS011;55462;47.042;8.292;2023-03-02T00:28:12;23.60;;;21.03;;
45420;SDS011;55462;47.042;8.292;2023-03-02T00:30:37;23.23;;;19.77;;
45420;SDS011;55462;47.042;8.292;2023-03-02T00:33:03;22.40;;;20.00;;
45420;SDS011;55462;47.042;8.292;2023-03-02T00:35:28;23.70;;;21.13;;
45420;SDS011;55462;47.042;8.292;2023-03-02T00:37:53;24.33;;;21.27;;
45420;SDS011;55462;47.042;8.292;2023-03-02T00:40:19;28.80;;;20.63;;
45420;SDS011;55462;47.042;8.292;2023-03-02T00:42:44;23.57;;;20.47;;
45420;SDS011;55462;47.042;8.292;2023-03-02T00:45:09;23.23;;;20.77;;
45420;SDS011;55462;47.042;8.292;2023-03-02T00:47:35;23.20;;;20.43;;
45420;SDS011;55462;47.042;8.292;2023-03-02T00:50:01;26.10;;;20.77;;
45420;SDS011;55462;47.042;8.292;2023-03-02T00:52:28;27.27;;;23.23;;
45420;SDS011;55462;47.042;8.292;2023-03-02T00:54:54;25.00;;;22.30;;
45420;SDS011;55462;47.042;8.292;2023-03-02T00:57:19;27.30;;;21.73;;
45420;SDS011;55462;47.042;8.292;2023-03-02T00:59:44;26.73;;;21.37;;
45420;SDS011;55462;47.042;8.292;2023-03-02T01:02:10;24.97;;;21.87;;
45420;SDS011;55462;47.042;8.292;2023-03-02T01:04:36;28.00;;;22.67;;
45420;SDS011;55462;47.042;8.292;2023-03-02T01:07:03;24.93;;;21.47;;
45420;SDS011;55462;47.042;8.292;2023-03-02T01:09:31;23.53;;;21.03;;
45420;SDS011;55462;47.042;8.292;2023-03-02T01:11:56;26.90;;;22.07;;
45420;SDS011;55462;47.042;8.292;2023-03-02T01:14:22;26.77;;;22.60;;
45420;SDS011;55462;47.042;8.292;2023-03-02T01:16:47;27.87;;;22.27;;
45420;SDS011;55462;47.042;8.292;2023-03-02T01:26:02;26.10;;;22.77;;
45420;SDS011;55462;47.042;8.292;2023-03-02T01:28:28;25.63;;;22.87;;
45420;SDS011;55462;47.042;8.292;2023-03-02T01:30:53;25.43;;;22.43;;
45420;SDS011;55462;47.042;8.292;2023-03-02T01:33:19;26.63;;;23.33;;
45420;SDS011;55462;47.042;8.292;2023-03-02T01:35:45;26.40;;;23.00;;
45420;SDS011;55462;47.042;8.292;2023-03-02T01:38:11;27.60;;;23.47;;
45420;SDS011;55462;47.042;8.292;2023-03-02T01:40:36;31.30;;;25.10;;
45420;SDS011;55462;47.042;8.292;2023-03-02T01:43:02;27.43;;;23.10;;
45420;SDS011;55462;47.042;8.292;2023-03-02T01:48:13;26.93;;;22.97;;
45420;SDS011;55462;47.042;8.292;2023-03-02T01:50:40;29.50;;;23.63;;
45420;SDS011;55462;47.042;8.292;2023-03-02T01:53:05;24.93;;;21.73;;
45420;SDS011;55462;47.042;8.292;2023-03-02T01:55:31;27.37;;;23.33;;
45420;SDS011;55462;47.042;8.292;2023-03-02T01:57:57;25.97;;;22.97;;
45420;SDS011;55462;47.042;8.292;2023-03-02T02:00:26;26.53;;;23.67;;
45420;SDS011;55462;47.042;8.292;2023-03-02T02:02:53;27.90;;;23.87;;
45420;SDS011;55462;47.042;8.292;2023-03-02T02:05:32;25.10;;;21.57;;
45420;SDS011;55462;47.042;8.292;2023-03-02T02:07:58;29.67;;;24.37;;
45420;SDS011;55462;47.042;8.292;2023-03-02T02:10:23;27.23;;;24.10;;
45420;SDS011;55462;47.042;8.292;2023-03-02T02:12:49;27.83;;;23.80;;
45420;SDS011;55462;47.042;8.292;2023-03-02T02:15:14;27.90;;;24.23;;
45420;SDS011;55462;47.042;8.292;2023-03-02T02:17:39;27.90;;;24.57;;
45420;SDS011;55462;47.042;8.292;2023-03-02T02:23:13;27.43;;;23.87;;
45420;SDS011;55462;47.042;8.292;2023-03-02T02:28:22;26.70;;;22.67;;
45420;SDS011;55462;47.042;8.292;2023-03-02T02:31:05;28.93;;;24.67;;
45420;SDS011;55462;47.042;8.292;2023-03-02T02:33:37;28.03;;;23.67;;
45420;SDS011;55462;47.042;8.292;2023-03-02T02:36:06;27.53;;;23.80;;
45420;SDS011;55462;47.042;8.292;2023-03-02T02:38:34;30.43;;;25.23;;
45420;SDS011;55462;47.042;8.292;2023-03-02T02:41:01;30.03;;;24.13;;
45420;SDS011;55462;47.042;8.292;2023-03-02T02:43:28;27.53;;;23.90;;
45420;SDS011;55462;47.042;8.292;2023-03-02T02:45:55;28.93;;;24.70;;
45420;SDS011;55462;47.042;8.292;2023-03-02T02:48:22;29.37;;;24.40;;
45420;SDS011;55462;47.042;8.292;2023-03-02T02:50:48;26.63;;;23.80;;
45420;SDS011;55462;47.042;8.292;2023-03-02T02:53:25;27.73;;;24.10;;
45420;SDS011;55462;47.042;8.292;2023-03-02T02:55:53;30.33;;;24.47;;
45420;SDS011;55462;47.042;8.292;2023-03-02T02:58:26;28.27;;;24.73;;
45420;SDS011;55462;47.042;8.292;2023-03-02T03:00:55;31.10;;;25.03;;
45420;SDS011;55462;47.042;8.292;2023-03-02T03:03:31;28.67;;;24.40;;
45420;SDS011;55462;47.042;8.292;2023-03-02T03:05:59;27.73;;;24.03;;
45420;SDS011;55462;47.042;8.292;2023-03-02T03:11:11;27.07;;;24.13;;
45420;SDS011;55462;47.042;8.292;2023-03-02T03:13:38;27.80;;;23.87;;
45420;SDS011;55462;47.042;8.292;2023-03-02T03:16:04;26.63;;;23.20;;
45420;SDS011;55462;47.042;8.292;2023-03-02T03:18:30;26.77;;;22.73;;
45420;SDS011;55462;47.042;8.292;2023-03-02T03:20:56;28.00;;;24.00;;
45420;SDS011;55462;47.042;8.292;2023-03-02T03:23:21;28.03;;;23.13;;
45420;SDS011;55462;47.042;8.292;2023-03-02T03:25:47;27.90;;;23.63;;
45420;SDS011;55462;47.042;8.292;2023-03-02T03:28:13;30.53;;;24.90;;
45420;SDS011;55462;47.042;8.292;2023-03-02T03:30:38;27.33;;;23.07;;
45420;SDS011;55462;47.042;8.292;2023-03-02T03:33:03;27.77;;;22.17;;
45420;SDS011;55462;47.042;8.292;2023-03-02T03:35:29;31.23;;;25.80;;
45420;SDS011;55462;47.042;8.292;2023-03-02T03:37:54;26.80;;;23.13;;
45420;SDS011;55462;47.042;8.292;2023-03-02T03:40:19;28.97;;;23.87;;
45420;SDS011;55462;47.042;8.292;2023-03-02T03:42:45;27.77;;;22.73;;
45420;SDS011;55462;47.042;8.292;2023-03-02T03:45:10;30.30;;;25.30;;
45420;SDS011;55462;47.042;8.292;2023-03-02T03:47:36;31.33;;;24.50;;
45420;SDS011;55462;47.042;8.292;2023-03-02T03:50:01;31.23;;;24.33;;
45420;SDS011;55462;47.042;8.292;2023-03-02T03:52:26;31.30;;;25.80;;
45420;SDS011;55462;47.042;8.292;2023-03-02T03:54:56;32.23;;;24.27;;
45420;SDS011;55462;47.042;8.292;2023-03-02T03:57:22;29.00;;;25.40;;
45420;SDS011;55462;47.042;8.292;2023-03-02T03:59:47;29.53;;;24.73;;
45420;SDS011;55462;47.042;8.292;2023-03-02T04:02:13;30.40;;;25.20;;
45420;SDS011;55462;47.042;8.292;2023-03-02T04:04:38;30.73;;;24.63;;
45420;SDS011;55462;47.042;8.292;2023-03-02T04:07:03;29.73;;;24.27;;
45420;SDS011;55462;47.042;8.292;2023-03-02T04:09:29;30.73;;;24.80;;
45420;SDS011;55462;47.042;8.292;2023-03-02T04:11:57;30.30;;;25.63;;
45420;SDS011;55462;47.042;8.292;2023-03-02T04:14:22;30.70;;;25.50;;
45420;SDS011;55462;47.042;8.292;2023-03-02T04:16:48;30.47;;;26.10;;
45420;SDS011;55462;47.042;8.292;2023-03-02T04:19:14;34.53;;;26.70;;
45420;SDS011;55462;47.042;8.292;2023-03-02T04:21:42;30.83;;;25.77;;
45420;SDS011;55462;47.042;8.292;2023-03-02T04:24:10;28.23;;;24.30;;
45420;SDS011;55462;47.042;8.292;2023-03-02T04:26:36;31.30;;;26.03;;
45420;SDS011;55462;47.042;8.292;2023-03-02T04:29:03;31.33;;;24.40;;
45420;SDS011;55462;47.042;8.292;2023-03-02T04:31:29;27.63;;;23.53;;
45420;SDS011;55462;47.042;8.292;2023-03-02T04:33:55;30.67;;;25.47;;
45420;SDS011;55462;47.042;8.292;2023-03-02T04:36:21;28.37;;;23.87;;
45420;SDS011;55462;47.042;8.292;2023-03-02T04:38:46;28.40;;;24.83;;
45420;SDS011;55462;47.042;8.292;2023-03-02T04:41:12;29.10;;;24.73;;
45420;SDS011;55462;47.042;8.292;2023-03-02T04:43:37;30.30;;;25.90;;
45420;SDS011;55462;47.042;8.292;2023-03-02T04:46:03;27.87;;;23.60;;
45420;SDS011;55462;47.042;8.292;2023-03-02T04:48:28;32.20;;;26.07;;
45420;SDS011;55462;47.042;8.292;2023-03-02T04:50:54;29.80;;;24.60;;
45420;SDS011;55462;47.042;8.292;2023-03-02T04:53:19;32.27;;;25.87;;
45420;SDS011;55462;47.042;8.292;2023-03-02T04:55:44;27.90;;;23.93;;
45420;SDS011;55462;47.042;8.292;2023-03-02T04:58:10;30.07;;;25.30;;
45420;SDS011;55462;47.042;8.292;2023-03-02T05:00:35;30.77;;;26.10;;
45420;SDS011;55462;47.042;8.292;2023-03-02T05:03:01;32.07;;;26.10;;
45420;SDS011;55462;47.042;8.292;2023-03-02T05:05:28;29.77;;;24.70;;
45420;SDS011;55462;47.042;8.292;2023-03-02T05:07:53;30.50;;;25.13;;
45420;SDS011;55462;47.042;8.292;2023-03-02T05:10:20;29.53;;;24.97;;
45420;SDS011;55462;47.042;8.292;2023-03-02T05:12:46;30.23;;;25.40;;
45420;SDS011;55462;47.042;8.292;2023-03-02T05:15:28;28.80;;;23.43;;
45420;SDS011;55462;47.042;8.292;2023-03-02T05:18:01;28.20;;;24.90;;
45420;SDS011;55462;47.042;8.292;2023-03-02T05:20:28;28.07;;;24.37;;
45420;SDS011;55462;47.042;8.292;2023-03-02T05:22:55;30.00;;;24.90;;
45420;SDS011;55462;47.042;8.292;2023-03-02T05:25:25;31.43;;;24.47;;
45420;SDS011;55462;47.042;8.292;2023-03-02T05:27:51;31.20;;;25.27;;
45420;SDS011;55462;47.042;8.292;2023-03-02T05:30:17;27.97;;;23.33;;
45420;SDS011;55462;47.042;8.292;2023-03-02T05:32:43;29.83;;;25.50;;
45420;SDS011;55462;47.042;8.292;2023-03-02T05:35:09;32.43;;;25.70;;
45420;SDS011;55462;47.042;8.292;2023-03-02T05:37:35;32.30;;;26.20;;
45420;SDS011;55462;47.042;8.292;2023-03-02T05:40:00;32.43;;;26.37;;
45420;SDS011;55462;47.042;8.292;2023-03-02T05:42:25;26.60;;;23.57;;
45420;SDS011;55462;47.042;8.292;2023-03-02T05:44:51;30.67;;;26.23;;
45420;SDS011;55462;47.042;8.292;2023-03-02T05:47:16;32.43;;;25.90;;
45420;SDS011;55462;47.042;8.292;2023-03-02T05:49:41;31.00;;;25.73;;
45420;SDS011;55462;47.042;8.292;2023-03-02T05:52:06;32.03;;;26.27;;
45420;SDS011;55462;47.042;8.292;2023-03-02T05:54:32;34.87;;;26.13;;
45420;SDS011;55462;47.042;8.292;2023-03-02T05:56:57;29.57;;;24.13;;
45420;SDS011;55462;47.042;8.292;2023-03-02T05:59:22;28.40;;;24.70;;
45420;SDS011;55462;47.042;8.292;2023-03-02T06:01:48;31.77;;;24.43;;
45420;SDS011;55462;47.042;8.292;2023-03-02T06:04:14;30.63;;;24.43;;
45420;SDS011;55462;47.042;8.292;2023-03-02T06:06:39;29.93;;;23.87;;
45420;SDS011;55462;47.042;8.292;2023-03-02T06:09:04;29.10;;;24.47;;
45420;SDS011;55462;47.042;8.292;2023-03-02T06:11:30;30.93;;;23.97;;
45420;SDS011;55462;47.042;8.292;2023-03-02T06:13:55;33.00;;;23.87;;
45420;SDS011;55462;47.042;8.292;2023-03-02T06:16:20;30.13;;;25.00;;
45420;SDS011;55462;47.042;8.292;2023-03-02T06:18:46;30.13;;;23.77;;
45420;SDS011;55462;47.042;8.292;2023-03-02T06:21:11;32.27;;;23.50;;
45420;SDS011;55462;47.042;8.292;2023-03-02T06:23:36;26.60;;;21.87;;
45420;SDS011;55462;47.042;8.292;2023-03-02T06:26:08;29.00;;;24.23;;
45420;SDS011;55462;47.042;8.292;2023-03-02T06:28:34;29.90;;;23.93;;
45420;SDS011;55462;47.042;8.292;2023-03-02T06:31:00;27.70;;;22.80;;
45420;SDS011;55462;47.042;8.292;2023-03-02T06:33:25;29.70;;;23.77;;
45420;SDS011;55462;47.042;8.292;2023-03-02T06:35:51;28.43;;;24.07;;
45420;SDS011;55462;47.042;8.292;2023-03-02T06:38:16;28.83;;;22.23;;
45420;SDS011;55462;47.042;8.292;2023-03-02T06:40:41;26.30;;;21.57;;
45420;SDS011;55462;47.042;8.292;2023-03-02T06:43:07;33.20;;;24.27;;
45420;SDS011;55462;47.042;8.292;2023-03-02T06:45:32;29.10;;;23.20;;
45420;SDS011;55462;47.042;8.292;2023-03-02T06:47:58;32.23;;;23.80;;
45420;SDS011;55462;47.042;8.292;2023-03-02T06:50:23;31.43;;;23.90;;
45420;SDS011;55462;47.042;8.292;2023-03-02T06:52:49;29.60;;;23.80;;
45420;SDS011;55462;47.042;8.292;2023-03-02T06:55:14;28.67;;;23.63;;
45420;SDS011;55462;47.042;8.292;2023-03-02T06:57:39;31.30;;;25.30;;
45420;SDS011;55462;47.042;8.292;2023-03-02T07:00:06;31.73;;;26.00;;
45420;SDS011;55462;47.042;8.292;2023-03-02T07:02:48;31.50;;;24.87;;
45420;SDS011;55462;47.042;8.292;2023-03-02T07:05:14;29.23;;;25.70;;
45420;SDS011;55462;47.042;8.292;2023-03-02T07:07:39;29.53;;;24.87;;
45420;SDS011;55462;47.042;8.292;2023-03-02T07:10:05;32.70;;;27.07;;
45420;SDS011;55462;47.042;8.292;2023-03-02T07:12:31;28.27;;;24.63;;
45420;SDS011;55462;47.042;8.292;2023-03-02T07:14:56;31.37;;;26.17;;
45420;SDS011;55462;47.042;8.292;2023-03-02T07:17:22;30.93;;;25.30;;
45420;SDS011;55462;47.042;8.292;2023-03-02T07:19:47;33.27;;;25.67;;
45420;SDS011;55462;47.042;8.292;2023-03-02T07:22:12;30.57;;;24.30;;
45420;SDS011;55462;47.042;8.292;2023-03-02T07:24:38;30.47;;;23.40;;
45420;SDS011;55462;47.042;8.292;2023-03-02T07:27:03;26.70;;;22.87;;
45420;SDS011;55462;47.042;8.292;2023-03-02T07:29:28;33.03;;;23.30;;
45420;SDS011;55462;47.042;8.292;2023-03-02T07:31:54;30.87;;;23.83;;
45420;SDS011;55462;47.042;8.292;2023-03-02T07:34:25;30.33;;;23.53;;
45420;SDS011;55462;47.042;8.292;2023-03-02T07:36:50;31.50;;;23.57;;
45420;SDS011;55462;47.042;8.292;2023-03-02T07:39:16;31.70;;;24.10;;
45420;SDS011;55462;47.042;8.292;2023-03-02T07:41:42;27.73;;;22.30;;
45420;SDS011;55462;47.042;8.292;2023-03-02T07:44:07;32.30;;;22.63;;
45420;SDS011;55462;47.042;8.292;2023-03-02T07:46:32;33.27;;;23.00;;
45420;SDS011;55462;47.042;8.292;2023-03-02T07:48:58;27.40;;;21.27;;
45420;SDS011;55462;47.042;8.292;2023-03-02T07:51:23;29.07;;;22.30;;
45420;SDS011;55462;47.042;8.292;2023-03-02T07:53:49;27.93;;;21.17;;
45420;SDS011;55462;47.042;8.292;2023-03-02T07:56:14;30.63;;;22.17;;
45420;SDS011;55462;47.042;8.292;2023-03-02T07:58:40;28.60;;;22.27;;
45420;SDS011;55462;47.042;8.292;2023-03-02T08:01:05;27.40;;;20.67;;
45420;SDS011;55462;47.042;8.292;2023-03-02T08:03:30;30.70;;;22.57;;
45420;SDS011;55462;47.042;8.292;2023-03-02T08:05:56;28.77;;;20.93;;
45420;SDS011;55462;47.042;8.292;2023-03-02T08:08:21;28.77;;;21.70;;
45420;SDS011;55462;47.042;8.292;2023-03-02T08:10:46;29.10;;;22.10;;
45420;SDS011;55462;47.042;8.292;2023-03-02T08:13:12;32.90;;;22.33;;
45420;SDS011;55462;47.042;8.292;2023-03-02T08:15:37;30.37;;;22.27;;
45420;SDS011;55462;47.042;8.292;2023-03-02T08:18:02;28.07;;;20.53;;
45420;SDS011;55462;47.042;8.292;2023-03-02T08:20:28;30.53;;;22.27;;
45420;SDS011;55462;47.042;8.292;2023-03-02T08:22:53;30.53;;;23.07;;
45420;SDS011;55462;47.042;8.292;2023-03-02T08:25:18;30.37;;;23.33;;
45420;SDS011;55462;47.042;8.292;2023-03-02T08:27:44;26.93;;;22.07;;
45420;SDS011;55462;47.042;8.292;2023-03-02T08:30:10;31.13;;;21.50;;
45420;SDS011;55462;47.042;8.292;2023-03-02T08:32:36;30.33;;;23.20;;
45420;SDS011;55462;47.042;8.292;2023-03-02T08:35:02;27.93;;;22.03;;
45420;SDS011;55462;47.042;8.292;2023-03-02T08:37:28;30.13;;;22.10;;
45420;SDS011;55462;47.042;8.292;2023-03-02T08:39:53;33.07;;;22.90;;
45420;SDS011;55462;47.042;8.292;2023-03-02T08:42:18;28.33;;;22.83;;
45420;SDS011;55462;47.042;8.292;2023-03-02T08:44:44;29.63;;;21.83;;
45420;SDS011;55462;47.042;8.292;2023-03-02T08:47:09;27.33;;;20.83;;
45420;SDS011;55462;47.042;8.292;2023-03-02T08:49:34;28.57;;;22.50;;
45420;SDS011;55462;47.042;8.292;2023-03-02T08:52:02;30.43;;;21.80;;
45420;SDS011;55462;47.042;8.292;2023-03-02T08:54:28;30.67;;;23.70;;
45420;SDS011;55462;47.042;8.292;2023-03-02T08:56:53;30.87;;;21.70;;
45420;SDS011;55462;47.042;8.292;2023-03-02T08:59:18;39.60;;;23.23;;
45420;SDS011;55462;47.042;8.292;2023-03-02T09:01:45;26.60;;;21.93;;
45420;SDS011;55462;47.042;8.292;2023-03-02T09:04:10;26.93;;;21.07;;
45420;SDS011;55462;47.042;8.292;2023-03-02T09:06:37;29.53;;;21.77;;
45420;SDS011;55462;47.042;8.292;2023-03-02T09:09:06;28.20;;;21.47;;
45420;SDS011;55462;47.042;8.292;2023-03-02T09:11:33;27.10;;;21.77;;
45420;SDS011;55462;47.042;8.292;2023-03-02T09:13:58;31.13;;;21.30;;
45420;SDS011;55462;47.042;8.292;2023-03-02T09:16:24;31.03;;;21.17;;
45420;SDS011;55462;47.042;8.292;2023-03-02T09:18:50;31.53;;;22.03;;
45420;SDS011;55462;47.042;8.292;2023-03-02T09:21:16;27.53;;;21.43;;
45420;SDS011;55462;47.042;8.292;2023-03-02T09:23:41;27.00;;;21.63;;
45420;SDS011;55462;47.042;8.292;2023-03-02T09:26:07;28.53;;;21.37;;
45420;SDS011;55462;47.042;8.292;2023-03-02T09:28:32;24.27;;;20.53;;
45420;SDS011;55462;47.042;8.292;2023-03-02T09:30:59;28.30;;;21.23;;
45420;SDS011;55462;47.042;8.292;2023-03-02T09:33:26;29.10;;;21.63;;
45420;SDS011;55462;47.042;8.292;2023-03-02T09:35:51;27.43;;;21.20;;
45420;SDS011;55462;47.042;8.292;2023-03-02T09:38:17;28.93;;;21.60;;
45420;SDS011;55462;47.042;8.292;2023-03-02T09:51:49;29.33;;;21.80;;
45420;SDS011;55462;47.042;8.292;2023-03-02T09:54:24;29.93;;;22.37;;
45420;SDS011;55462;47.042;8.292;2023-03-02T09:56:52;25.33;;;20.30;;
45420;SDS011;55462;47.042;8.292;2023-03-02T09:59:32;27.67;;;21.13;;
45420;SDS011;55462;47.042;8.292;2023-03-02T10:04:57;27.67;;;20.30;;
45420;SDS011;55462;47.042;8.292;2023-03-02T10:07:26;25.90;;;20.23;;
45420;SDS011;55462;47.042;8.292;2023-03-02T10:09:53;26.53;;;21.07;;
45420;SDS011;55462;47.042;8.292;2023-03-02T10:13:04;24.57;;;19.40;;
45420;SDS011;55462;47.042;8.292;2023-03-02T10:15:25;24.73;;;19.53;;
45420;SDS011;55462;47.042;8.292;2023-03-02T10:25:59;24.73;;;20.23;;
45420;SDS011;55462;47.042;8.292;2023-03-02T10:28:48;28.43;;;21.00;;
45420;SDS011;55462;47.042;8.292;2023-03-02T10:31:28;25.37;;;20.53;;
45420;SDS011;55462;47.042;8.292;2023-03-02T10:33:55;27.57;;;20.60;;
45420;SDS011;55462;47.042;8.292;2023-03-02T10:36:22;27.27;;;20.30;;
45420;SDS011;55462;47.042;8.292;2023-03-02T10:38:47;25.27;;;20.90;;
45420;SDS011;55462;47.042;8.292;2023-03-02T10:41:14;25.90;;;21.87;;
45420;SDS011;55462;47.042;8.292;2023-03-02T10:43:45;25.50;;;20.03;;
45420;SDS011;55462;47.042;8.292;2023-03-02T10:46:13;25.60;;;20.27;;
45420;SDS011;55462;47.042;8.292;2023-03-02T10:48:45;26.50;;;20.60;;
45420;SDS011;55462;47.042;8.292;2023-03-02T10:51:28;25.43;;;20.53;;
45420;SDS011;55462;47.042;8.292;2023-03-02T10:54:01;30.23;;;21.93;;
45420;SDS011;55462;47.042;8.292;2023-03-02T10:56:48;24.83;;;19.60;;
45420;SDS011;55462;47.042;8.292;2023-03-02T11:01:57;24.17;;;19.83;;
45420;SDS011;55462;47.042;8.292;2023-03-02T11:04:27;28.60;;;21.20;;
45420;SDS011;55462;47.042;8.292;2023-03-02T11:06:53;25.37;;;20.80;;
45420;SDS011;55462;47.042;8.292;2023-03-02T11:09:18;26.30;;;21.33;;
45420;SDS011;55462;47.042;8.292;2023-03-02T11:11:48;26.67;;;21.30;;
45420;SDS011;55462;47.042;8.292;2023-03-02T11:14:15;28.53;;;21.13;;
45420;SDS011;55462;47.042;8.292;2023-03-02T11:16:41;25.53;;;20.93;;
45420;SDS011;55462;47.042;8.292;2023-03-02T11:19:16;25.10;;;20.43;;
45420;SDS011;55462;47.042;8.292;2023-03-02T11:21:55;27.23;;;21.33;;
45420;SDS011;55462;47.042;8.292;2023-03-02T11:24:28;27.10;;;21.53;;
45420;SDS011;55462;47.042;8.292;2023-03-02T11:32:49;25.87;;;20.53;;
45420;SDS011;55462;47.042;8.292;2023-03-02T11:38:18;23.30;;;20.05;;
45420;SDS011;55462;47.042;8.292;2023-03-02T11:40:53;26.40;;;21.20;;
45420;SDS011;55462;47.042;8.292;2023-03-02T11:43:22;23.63;;;21.05;;
45420;SDS011;55462;47.042;8.292;2023-03-02T11:45:52;25.98;;;21.42;;
45420;SDS011;55462;47.042;8.292;2023-03-02T11:51:04;26.48;;;21.50;;
45420;SDS011;55462;47.042;8.292;2023-03-02T11:56:06;24.75;;;21.23;;
45420;SDS011;55462;47.042;8.292;2023-03-02T11:58:31;25.83;;;21.50;;
45420;SDS011;55462;47.042;8.292;2023-03-02T12:00:57;27.83;;;22.80;;
45420;SDS011;55462;47.042;8.292;2023-03-02T12:10:43;24.90;;;20.67;;
45420;SDS011;55462;47.042;8.292;2023-03-02T12:13:23;24.50;;;20.65;;
45420;SDS011;55462;47.042;8.292;2023-03-02T12:15:50;24.90;;;21.67;;
45420;SDS011;55462;47.042;8.292;2023-03-02T12:20:44;25.75;;;21.10;;
45420;SDS011;55462;47.042;8.292;2023-03-02T12:23:20;27.58;;;21.77;;
45420;SDS011;55462;47.042;8.292;2023-03-02T12:25:46;25.83;;;21.17;;
45420;SDS011;55462;47.042;8.292;2023-03-02T12:28:26;26.90;;;22.35;;
45420;SDS011;55462;47.042;8.292;2023-03-02T12:31:38;27.80;;;21.80;;
45420;SDS011;55462;47.042;8.292;2023-03-02T12:33:49;26.30;;;21.40;;
45420;SDS011;55462;47.042;8.292;2023-03-02T12:36:17;26.38;;;21.50;;
45420;SDS011;55462;47.042;8.292;2023-03-02T12:39:01;26.75;;;21.35;;
45420;SDS011;55462;47.042;8.292;2023-03-02T12:47:18;26.48;;;23.25;;
45420;SDS011;55462;47.042;8.292;2023-03-02T12:50:24;30.33;;;23.08;;
45420;SDS011;55462;47.042;8.292;2023-03-02T12:52:55;27.30;;;22.23;;
45420;SDS011;55462;47.042;8.292;2023-03-02T12:55:30;28.08;;;22.08;;
45420;SDS011;55462;47.042;8.292;2023-03-02T12:57:58;25.77;;;21.63;;
45420;SDS011;55462;47.042;8.292;2023-03-02T13:00:32;26.83;;;22.15;;
45420;SDS011;55462;47.042;8.292;2023-03-02T13:02:58;32.40;;;22.17;;
45420;SDS011;55462;47.042;8.292;2023-03-02T13:05:30;27.70;;;22.83;;
45420;SDS011;55462;47.042;8.292;2023-03-02T13:07:59;28.40;;;23.15;;
45420;SDS011;55462;47.042;8.292;2023-03-02T13:13:00;27.13;;;22.63;;
45420;SDS011;55462;47.042;8.292;2023-03-02T13:15:26;26.88;;;22.80;;
45420;SDS011;55462;47.042;8.292;2023-03-02T13:17:53;28.73;;;22.40;;
45420;SDS011;55462;47.042;8.292;2023-03-02T13:20:26;26.55;;;22.08;;
45420;SDS011;55462;47.042;8.292;2023-03-02T13:22:52;29.50;;;23.55;;
45420;SDS011;55462;47.042;8.292;2023-03-02T13:25:22;25.38;;;22.08;;
45420;SDS011;55462;47.042;8.292;2023-03-02T13:27:57;27.10;;;22.60;;
45420;SDS011;55462;47.042;8.292;2023-03-02T13:30:31;25.13;;;22.48;;
45420;SDS011;55462;47.042;8.292;2023-03-02T13:33:01;24.92;;;22.05;;
45420;SDS011;55462;47.042;8.292;2023-03-02T13:35:29;27.25;;;23.00;;
45420;SDS011;55462;47.042;8.292;2023-03-02T13:38:00;26.83;;;23.00;;
45420;SDS011;55462;47.042;8.292;2023-03-02T13:40:37;25.00;;;20.83;;
45420;SDS011;55462;47.042;8.292;2023-03-02T13:43:15;28.50;;;23.45;;
45420;SDS011;55462;47.042;8.292;2023-03-02T13:46:05;25.15;;;22.45;;
45420;SDS011;55462;47.042;8.292;2023-03-02T13:48:54;25.05;;;21.40;;
45420;SDS011;55462;47.042;8.292;2023-03-02T13:51:25;25.77;;;22.88;;
45420;SDS011;55462;47.042;8.292;2023-03-02T13:53:56;28.00;;;23.92;;
45420;SDS011;55462;47.042;8.292;2023-03-02T13:56:25;27.40;;;23.10;;
45420;SDS011;55462;47.042;8.292;2023-03-02T13:58:55;29.70;;;22.77;;
45420;SDS011;55462;47.042;8.292;2023-03-02T14:01:20;26.80;;;23.25;;
45420;SDS011;55462;47.042;8.292;2023-03-02T14:03:46;28.42;;;23.55;;
45420;SDS011;55462;47.042;8.292;2023-03-02T14:06:11;30.52;;;24.50;;
45420;SDS011;55462;47.042;8.292;2023-03-02T14:08:36;26.45;;;22.20;;
45420;SDS011;55462;47.042;8.292;2023-03-02T14:11:02;24.42;;;21.77;;
45420;SDS011;55462;47.042;8.292;2023-03-02T14:16:23;27.15;;;22.58;;
45420;SDS011;55462;47.042;8.292;2023-03-02T14:18:48;30.15;;;23.25;;
45420;SDS011;55462;47.042;8.292;2023-03-02T14:21:16;31.67;;;24.58;;
45420;SDS011;55462;47.042;8.292;2023-03-02T14:23:43;26.98;;;23.10;;
45420;SDS011;55462;47.042;8.292;2023-03-02T14:28:59;28.17;;;23.92;;
45420;SDS011;55462;47.042;8.292;2023-03-02T14:31:31;25.10;;;22.40;;
45420;SDS011;55462;47.042;8.292;2023-03-02T14:33:57;25.13;;;22.42;;
45420;SDS011;55462;47.042;8.292;2023-03-02T14:36:25;26.38;;;23.33;;
45420;SDS011;55462;47.042;8.292;2023-03-02T14:38:54;27.50;;;23.75;;
45420;SDS011;55462;47.042;8.292;2023-03-02T14:41:21;27.60;;;24.30;;
45420;SDS011;55462;47.042;8.292;2023-03-02T14:43:47;30.60;;;24.42;;
45420;SDS011;55462;47.042;8.292;2023-03-02T14:46:13;27.42;;;23.40;;
45420;SDS011;55462;47.042;8.292;2023-03-02T14:48:38;27.35;;;23.42;;
45420;SDS011;55462;47.042;8.292;2023-03-02T14:51:04;28.52;;;24.20;;
45420;SDS011;55462;47.042;8.292;2023-03-02T14:53:30;27.80;;;24.80;;
45420;SDS011;55462;47.042;8.292;2023-03-02T14:55:57;26.33;;;23.45;;
45420;SDS011;55462;47.042;8.292;2023-03-02T14:58:29;28.67;;;24.40;;
45420;SDS011;55462;47.042;8.292;2023-03-02T15:00:58;28.00;;;25.00;;
45420;SDS011;55462;47.042;8.292;2023-03-02T15:03:24;28.65;;;24.33;;
45420;SDS011;55462;47.042;8.292;2023-03-02T15:05:50;27.92;;;23.15;;
45420;SDS011;55462;47.042;8.292;2023-03-02T15:08:18;26.17;;;23.30;;
45420;SDS011;55462;47.042;8.292;2023-03-02T15:10:44;37.92;;;25.40;;
45420;SDS011;55462;47.042;8.292;2023-03-02T15:13:11;29.17;;;25.40;;
45420;SDS011;55462;47.042;8.292;2023-03-02T15:15:38;28.35;;;25.02;;
45420;SDS011;55462;47.042;8.292;2023-03-02T15:18:03;27.27;;;24.23;;
45420;SDS011;55462;47.042;8.292;2023-03-02T15:20:29;29.83;;;25.42;;
45420;SDS011;55462;47.042;8.292;2023-03-02T15:22:54;30.35;;;25.17;;
45420;SDS011;55462;47.042;8.292;2023-03-02T15:25:20;29.23;;;25.38;;
45420;SDS011;55462;47.042;8.292;2023-03-02T15:27:48;32.00;;;25.30;;
45420;SDS011;55462;47.042;8.292;2023-03-02T15:30:13;27.35;;;24.35;;
45420;SDS011;55462;47.042;8.292;2023-03-02T15:32:38;30.80;;;25.92;;
45420;SDS011;55462;47.042;8.292;2023-03-02T15:35:04;29.33;;;25.10;;
45420;SDS011;55462;47.042;8.292;2023-03-02T15:37:29;32.40;;;26.60;;
45420;SDS011;55462;47.042;8.292;2023-03-02T15:39:55;27.23;;;24.10;;
45420;SDS011;55462;47.042;8.292;2023-03-02T15:42:21;31.70;;;25.47;;
45420;SDS011;55462;47.042;8.292;2023-03-02T15:44:46;28.92;;;25.45;;